Time;durP1;ratioP1;P1;durP2;ratioP2;P2;SDS_P1;SDS_P2;PMS_P1;PMS_P2;Temp;Humidity;BMP_temperature;BMP_pressure;BME280_temperature;BME280_humidity;BME280_pressure;Samples;Min_cycle;Max_cycle;Signal;HPM_P1;HPM_P2
2022/07/18 00:01:33;;;;;;;18.27;8.07;;;16.60;99.90;;;;;;4995741;28;20125;-59
2022/07/18 00:03:59;;;;;;;9.63;7.05;;;16.70;99.90;;;;;;4995736;28;20097;-59
2022/07/18 00:06:25;;;;;;;10.60;7.13;;;16.60;99.90;;;;;;4996206;28;20046;-59
2022/07/18 00:08:50;;;;;;;10.77;6.72;;;16.70;99.90;;;;;;4995463;28;20046;-59
2022/07/18 00:11:16;;;;;;;10.75;7.22;;;16.60;99.90;;;;;;4977902;28;20046;-59
2022/07/18 00:13:42;;;;;;;9.88;7.03;;;16.90;99.90;;;;;;4995374;28;20082;-59
2022/07/18 00:16:08;;;;;;;11.02;7.03;;;16.30;99.90;;;;;;4995408;28;20523;-59
2022/07/18 00:18:34;;;;;;;10.32;6.80;;;16.50;99.90;;;;;;4995843;28;20408;-59
2022/07/18 00:21:00;;;;;;;9.48;6.82;;;16.80;99.90;;;;;;4995655;28;20050;-59
2022/07/18 00:23:27;;;;;;;13.18;7.30;;;16.10;99.90;;;;;;4995672;28;20540;-59
2022/07/18 00:25:52;;;;;;;9.68;6.93;;;16.50;99.90;;;;;;4995301;28;20050;-59
2022/07/18 00:28:19;;;;;;;10.15;7.10;;;15.90;99.90;;;;;;4995350;28;20486;-59
2022/07/18 00:30:44;;;;;;;10.88;7.22;;;16.50;99.90;;;;;;4995351;28;20059;-59
2022/07/18 00:33:10;;;;;;;13.73;7.10;;;16.80;99.90;;;;;;4993439;28;20053;-59
2022/07/18 00:35:36;;;;;;;10.88;6.97;;;16.30;99.90;;;;;;4995182;28;20043;-59
2022/07/18 00:38:02;;;;;;;9.30;6.65;;;16.20;99.90;;;;;;4977848;28;20482;-59
2022/07/18 00:40:32;;;;;;;9.30;6.70;;;16.20;99.90;;;;;;4995105;28;20042;-59
2022/07/18 00:42:58;;;;;;;8.65;6.53;;;16.80;99.90;;;;;;4994773;28;20065;-59
2022/07/18 00:45:24;;;;;;;10.38;6.90;;;16.30;99.90;;;;;;4995114;28;20050;-59
2022/07/18 00:47:51;;;;;;;10.20;6.75;;;16.30;99.90;;;;;;4993870;28;20054;-59
2022/07/18 00:50:18;;;;;;;10.10;7.07;;;16.30;99.90;;;;;;4993882;28;20050;-59
2022/07/18 00:52:43;;;;;;;10.20;7.03;;;16.00;99.90;;;;;;4995065;28;20450;-59
2022/07/18 00:55:11;;;;;;;9.65;6.47;;;16.10;99.90;;;;;;4995075;28;20047;-59
2022/07/18 00:57:39;;;;;;;11.68;7.30;;;16.30;99.90;;;;;;4995093;28;20057;-59
2022/07/18 01:03:28;;;;;;;9.02;7.13;;;16.00;99.90;;;;;;4984570;28;20489;-58
2022/07/18 01:05:54;;;;;;;10.00;6.78;;;15.90;99.90;;;;;;4980215;28;20043;-58
2022/07/18 01:08:20;;;;;;;14.38;7.05;;;15.90;99.90;;;;;;4973920;28;20497;-58
2022/07/18 01:10:45;;;;;;;11.75;6.95;;;15.80;99.90;;;;;;4973615;28;20038;-58
2022/07/18 01:13:11;;;;;;;11.85;7.53;;;15.80;99.90;;;;;;4956343;28;20434;-58
2022/07/18 01:15:37;;;;;;;10.43;7.00;;;15.80;99.90;;;;;;4956191;28;20049;-58
2022/07/18 01:18:04;;;;;;;13.02;7.32;;;15.80;99.90;;;;;;4956458;28;20089;-58
2022/07/18 01:20:31;;;;;;;10.50;7.22;;;15.80;99.90;;;;;;4973554;28;20125;-57
2022/07/18 01:22:57;;;;;;;11.43;7.00;;;14.90;99.90;;;;;;4973433;28;20375;-58
2022/07/18 01:25:23;;;;;;;13.65;7.38;;;15.60;99.90;;;;;;4973408;28;20050;-58
2022/07/18 01:27:49;;;;;;;12.57;6.95;;;15.90;99.90;;;;;;4973542;28;20180;-58
2022/07/18 01:30:15;;;;;;;13.10;7.80;;;15.70;99.90;;;;;;4973137;28;20171;-58
2022/07/18 01:32:42;;;;;;;9.75;7.30;;;15.70;99.90;;;;;;4973383;28;20043;-58
2022/07/18 01:35:08;;;;;;;9.77;6.93;;;15.70;99.90;;;;;;4980697;28;20555;-58
2022/07/18 01:37:33;;;;;;;9.68;7.13;;;15.80;99.90;;;;;;4992767;28;20046;-58
2022/07/18 01:39:59;;;;;;;14.65;8.05;;;15.30;99.90;;;;;;4992653;28;20042;-58
2022/07/18 01:42:25;;;;;;;12.25;7.45;;;15.60;99.90;;;;;;4992348;28;20406;-58
2022/07/18 01:44:50;;;;;;;9.93;7.05;;;15.60;99.90;;;;;;4991607;28;20413;-58
2022/07/18 01:47:17;;;;;;;14.25;7.72;;;15.50;99.90;;;;;;4992810;28;20057;-58
2022/07/18 01:49:43;;;;;;;13.90;7.40;;;15.60;99.90;;;;;;4992246;28;20581;-58
2022/07/18 01:52:09;;;;;;;10.18;7.65;;;15.60;99.90;;;;;;4992587;28;20038;-58
2022/07/18 01:54:36;;;;;;;11.15;7.72;;;15.50;99.90;;;;;;4974898;28;20046;-58
2022/07/18 01:57:03;;;;;;;12.00;7.70;;;15.50;99.90;;;;;;4992220;28;20051;-58
2022/07/18 01:59:30;;;;;;;13.70;7.55;;;15.50;99.90;;;;;;4992382;28;20046;-58
2022/07/18 02:01:55;;;;;;;14.73;7.65;;;15.40;99.90;;;;;;4992118;28;20054;-57
2022/07/18 02:04:59;;;;;;;13.70;7.50;;;15.30;99.90;;;;;;4992113;28;20104;-58
2022/07/18 02:07:07;;;;;;;;;;;15.40;99.90;;;;;;4992674;28;20090;-58
2022/07/18 02:09:33;;;;;;;;;;;15.40;99.90;;;;;;4965361;28;19965;-58
2022/07/18 02:11:59;;;;;;;15.43;8.63;;;15.20;99.90;;;;;;4972486;28;19961;-58
2022/07/18 02:14:24;;;;;;;12.30;8.38;;;15.20;99.90;;;;;;4972831;28;20065;-57
2022/07/18 02:16:50;;;;;;;11.85;8.13;;;15.30;99.90;;;;;;4955218;28;20054;-57
2022/07/18 02:19:16;;;;;;;17.35;8.13;;;15.90;99.90;;;;;;4972464;28;20061;-60
2022/07/18 02:21:41;;;;;;;13.48;8.65;;;15.10;99.90;;;;;;4972587;28;20106;-57
2022/07/18 02:24:07;;;;;;;12.90;8.57;;;15.70;99.90;;;;;;4972533;28;20047;-57
2022/07/18 02:26:34;;;;;;;11.88;8.40;;;15.30;99.90;;;;;;4972485;28;20402;-57
2022/07/18 02:29:00;;;;;;;14.55;8.10;;;15.40;99.90;;;;;;4955370;28;20443;-57
2022/07/18 02:31:26;;;;;;;11.90;8.57;;;15.30;99.90;;;;;;4972879;28;20114;-58
2022/07/18 02:33:52;;;;;;;15.23;8.82;;;;;;;;;;4972417;28;20402;-57
2022/07/18 02:36:18;;;;;;;11.77;8.02;;;15.30;99.90;;;;;;4972314;28;20124;-57
2022/07/18 02:38:43;;;;;;;15.40;8.60;;;15.30;99.90;;;;;;4955079;28;20070;-57
2022/07/18 02:41:09;;;;;;;10.98;8.15;;;15.40;99.90;;;;;;4972402;28;20057;-58
2022/07/18 02:43:35;;;;;;;13.25;8.18;;;15.20;99.90;;;;;;4972543;28;20051;-58
2022/07/18 02:46:00;;;;;;;12.75;8.18;;;15.10;99.90;;;;;;4972525;28;20047;-57
2022/07/18 02:48:26;;;;;;;12.20;8.50;;;15.20;99.90;;;;;;4972367;28;20051;-58
2022/07/18 02:50:52;;;;;;;14.65;8.20;;;;;;;;;;4972478;28;20430;-58
2022/07/18 02:53:19;;;;;;;12.80;8.27;;;14.90;99.90;;;;;;4972790;28;20042;-58
2022/07/18 02:55:45;;;;;;;11.55;8.10;;;15.10;99.90;;;;;;4972109;28;20074;-58
2022/07/18 02:58:10;;;;;;;14.40;8.45;;;15.60;99.90;;;;;;4976054;28;20490;-58
2022/07/18 03:00:36;;;;;;;11.55;8.13;;;14.70;99.90;;;;;;4976106;28;20105;-57
2022/07/18 03:03:02;;;;;;;11.90;8.13;;;15.10;99.90;;;;;;4958553;28;20489;-58
2022/07/18 03:05:28;;;;;;;14.70;8.27;;;15.10;99.90;;;;;;4975901;28;20062;-57
2022/07/18 03:07:53;;;;;;;11.48;8.02;;;15.10;99.90;;;;;;4976001;28;20042;-58
2022/07/18 03:10:19;;;;;;;13.73;8.07;;;15.00;99.90;;;;;;4975923;28;20050;-58
2022/07/18 03:12:45;;;;;;;12.55;8.20;;;15.00;99.90;;;;;;4975804;28;20047;-58
2022/07/18 03:15:10;;;;;;;14.85;8.25;;;15.50;99.90;;;;;;4958440;28;20360;-58
2022/07/18 03:17:36;;;;;;;10.73;7.95;;;15.00;99.90;;;;;;4975827;28;20046;-57
2022/07/18 03:20:02;;;;;;;15.57;8.35;;;15.60;99.90;;;;;;4975893;28;20050;-58
2022/07/18 03:22:28;;;;;;;13.60;8.57;;;15.00;99.90;;;;;;4975640;28;20053;-58
2022/07/18 03:24:54;;;;;;;15.02;8.25;;;15.00;99.90;;;;;;4975511;28;20245;-58
2022/07/18 03:27:19;;;;;;;13.27;8.15;;;15.00;99.90;;;;;;4975653;28;20082;-57
2022/07/18 03:29:45;;;;;;;17.33;8.75;;;15.00;99.90;;;;;;4975758;28;20047;-58
2022/07/18 03:32:11;;;;;;;14.90;8.15;;;14.70;99.90;;;;;;4975353;28;20043;-57
2022/07/18 03:34:36;;;;;;;11.18;7.90;;;14.80;99.90;;;;;;4975401;28;20047;-57
2022/07/18 03:37:02;;;;;;;14.13;7.95;;;15.00;99.90;;;;;;4975692;28;20480;-58
2022/07/18 03:39:28;;;;;;;11.88;7.75;;;14.90;99.90;;;;;;4975243;28;20463;-57
2022/07/18 03:41:53;;;;;;;11.10;7.78;;;15.30;99.90;;;;;;4975529;28;20078;-57
2022/07/18 03:44:19;;;;;;;13.85;8.02;;;15.10;99.90;;;;;;4975325;28;20402;-57
2022/07/18 03:46:45;;;;;;;13.10;7.90;;;15.00;99.90;;;;;;4975083;28;20417;-57
2022/07/18 03:49:11;;;;;;;13.02;7.85;;;15.00;99.90;;;;;;4974857;28;20050;-57
2022/07/18 03:51:37;;;;;;;11.15;7.57;;;14.90;99.90;;;;;;4975177;28;20118;-57
2022/07/18 03:54:02;;;;;;;13.32;7.72;;;14.70;99.90;;;;;;4974946;28;20352;-57
2022/07/18 03:56:28;;;;;;;14.57;7.85;;;15.10;99.90;;;;;;4975090;28;20049;-57
2022/07/18 03:58:54;;;;;;;12.32;8.13;;;15.00;99.90;;;;;;4974919;28;20046;-57
2022/07/18 04:01:20;;;;;;;11.27;7.25;;;15.30;99.90;;;;;;4963541;28;20059;-57
2022/07/18 04:03:45;;;;;;;14.82;7.10;;;15.20;99.90;;;;;;4955605;29;20055;-57
2022/07/18 04:06:11;;;;;;;10.43;7.00;;;15.30;99.90;;;;;;4955502;29;20561;-57
2022/07/18 04:08:37;;;;;;;12.13;7.05;;;15.20;99.90;;;;;;4954127;28;20047;-57
2022/07/18 04:11:02;;;;;;;12.25;7.40;;;15.40;99.90;;;;;;4955682;29;20141;-57
2022/07/18 04:13:28;;;;;;;11.57;7.03;;;15.50;99.90;;;;;;4955528;29;20122;-57
2022/07/18 04:15:54;;;;;;;14.10;7.00;;;15.50;99.90;;;;;;4955425;29;20169;-57
2022/07/18 04:18:19;;;;;;;9.93;6.72;;;15.60;99.90;;;;;;4955278;29;20050;-57
2022/07/18 04:20:45;;;;;;;11.45;6.75;;;15.80;99.90;;;;;;4955315;29;20376;-57
2022/07/18 04:23:11;;;;;;;10.57;6.55;;;15.70;99.90;;;;;;4937942;29;20345;-57
2022/07/18 04:25:41;;;;;;;11.15;6.30;;;15.80;99.90;;;;;;4955310;29;20402;-57
2022/07/18 04:28:10;;;;;;;11.35;6.40;;;15.20;99.90;;;;;;4955052;29;20064;-52
2022/07/18 04:30:37;;;;;;;10.48;6.15;;;15.70;99.90;;;;;;4955009;29;20406;-53
2022/07/18 04:33:07;;;;;;;10.02;6.47;;;16.00;99.90;;;;;;4954945;29;20520;-52
2022/07/18 04:35:35;;;;;;;10.77;6.05;;;16.10;99.90;;;;;;4955428;29;20073;-57
2022/07/18 04:38:03;;;;;;;10.48;6.20;;;16.00;99.90;;;;;;4955121;29;20054;-57
2022/07/18 04:40:28;;;;;;;12.70;6.53;;;16.20;99.90;;;;;;4954910;29;20043;-57
2022/07/18 04:42:54;;;;;;;9.60;6.25;;;16.20;99.90;;;;;;4954845;29;20094;-57
2022/07/18 04:45:23;;;;;;;10.60;5.85;;;16.60;99.90;;;;;;4953464;28;20059;-57
2022/07/18 04:47:52;;;;;;;11.50;6.20;;;16.60;99.90;;;;;;4961369;28;20082;-57
2022/07/18 04:50:19;;;;;;;13.32;6.20;;;17.50;99.90;;;;;;4972352;28;20057;-57
2022/07/18 04:52:46;;;;;;;8.50;5.50;;;17.40;99.90;;;;;;4973394;28;20055;-57
2022/07/18 04:55:13;;;;;;;14.32;5.88;;;18.10;99.90;;;;;;4955308;28;20129;-58
2022/07/18 04:57:39;;;;;;;14.20;5.70;;;19.40;99.90;;;;;;4972797;28;20453;-58
2022/07/18 05:00:09;;;;;;;8.98;5.22;;;19.30;99.90;;;;;;4972437;28;20070;-55
2022/07/18 05:02:34;;;;;;;11.95;5.10;;;19.80;99.90;;;;;;4972379;28;20097;-57
2022/07/18 05:05:00;;;;;;;11.93;5.25;;;20.10;99.90;;;;;;4972124;28;20075;-57
2022/07/18 05:07:26;;;;;;;9.88;4.95;;;19.90;99.90;;;;;;4954475;28;20204;-56
2022/07/18 05:09:51;;;;;;;9.40;5.20;;;19.50;99.90;;;;;;4972737;28;20086;-57
2022/07/18 05:12:18;;;;;;;8.02;4.93;;;19.50;99.90;;;;;;4955049;28;20058;-57
2022/07/18 05:14:44;;;;;;;7.40;4.70;;;19.30;99.90;;;;;;4954632;28;20081;-59
2022/07/18 05:17:10;;;;;;;14.32;5.20;;;19.20;99.90;;;;;;4972086;28;20050;-54
2022/07/18 05:19:35;;;;;;;12.73;5.22;;;18.30;99.90;;;;;;4972162;28;20058;-55
2022/07/18 05:22:01;;;;;;;9.43;4.88;;;19.20;99.90;;;;;;4972618;28;20410;-54
2022/07/18 05:24:27;;;;;;;10.43;5.15;;;19.60;99.90;;;;;;4973123;28;20125;-55
2022/07/18 05:26:53;;;;;;;11.13;4.63;;;19.90;99.90;;;;;;4972880;28;20414;-55
2022/07/18 05:29:18;;;;;;;10.77;5.20;;;20.00;99.90;;;;;;4955817;28;20062;-54
2022/07/18 05:31:44;;;;;;;10.50;4.95;;;20.50;99.90;;;;;;4973203;28;20086;-54
2022/07/18 05:34:10;;;;;;;26.83;5.43;;;19.90;99.90;;;;;;4973263;28;20053;-55
2022/07/18 05:36:35;;;;;;;35.20;6.30;;;20.00;99.90;;;;;;4955777;28;20110;-56
2022/07/18 05:39:02;;;;;;;18.27;5.57;;;19.60;99.90;;;;;;4973343;28;20058;-55
2022/07/18 05:41:28;;;;;;;14.60;5.28;;;19.80;99.90;;;;;;4955835;28;20134;-56
2022/07/18 05:43:54;;;;;;;9.90;5.35;;;19.90;99.90;;;;;;4973204;28;20129;-55
2022/07/18 05:46:19;;;;;;;9.30;5.00;;;20.50;99.90;;;;;;4972941;28;20054;-55
2022/07/18 05:48:46;;;;;;;12.05;5.47;;;19.80;99.90;;;;;;4972646;28;20053;-55
2022/07/18 05:51:12;;;;;;;11.13;5.97;;;19.90;99.90;;;;;;4955816;28;20486;-55
2022/07/18 05:53:38;;;;;;;10.10;5.45;;;19.70;99.90;;;;;;4973127;28;20043;-55
2022/07/18 05:56:04;;;;;;;12.98;5.60;;;19.60;99.90;;;;;;4955373;28;20077;-56
2022/07/18 05:58:30;;;;;;;10.73;5.90;;;19.50;99.90;;;;;;4972729;28;20043;-54
2022/07/18 06:00:57;;;;;;;12.70;5.13;;;20.30;99.90;;;;;;4980723;28;20138;-55
2022/07/18 06:03:23;;;;;;;10.90;5.30;;;20.50;99.90;;;;;;4992400;28;20045;-54
2022/07/18 06:05:49;;;;;;;11.25;5.18;;;21.50;99.90;;;;;;4992362;28;20531;-55
2022/07/18 06:08:14;;;;;;;8.30;4.88;;;22.40;94.90;;;;;;4974867;28;20541;-55
2022/07/18 06:10:40;;;;;;;8.95;5.00;;;23.30;90.90;;;;;;4992048;28;20407;-56
2022/07/18 06:13:06;;;;;;;9.55;4.70;;;23.60;86.80;;;;;;4992128;28;20046;-54
2022/07/18 06:15:33;;;;;;;8.63;4.90;;;23.30;92.40;;;;;;4991837;28;20054;-55
2022/07/18 06:17:59;;;;;;;12.07;4.50;;;23.10;84.20;;;;;;4991937;28;20054;-55
2022/07/18 06:20:24;;;;;;;10.32;4.65;;;22.70;85.50;;;;;;4991866;28;20042;-54
2022/07/18 06:22:50;;;;;;;7.60;4.53;;;22.50;87.70;;;;;;4992401;28;20050;-56
2022/07/18 06:25:16;;;;;;;7.03;4.40;;;22.20;89.00;;;;;;4992242;28;20081;-55
2022/07/18 06:27:42;;;;;;;9.70;4.50;;;21.00;94.70;;;;;;4991776;28;20421;-55
2022/07/18 06:30:09;;;;;;;8.18;4.53;;;21.80;90.20;;;;;;4991904;28;20112;-55
2022/07/18 06:32:35;;;;;;;8.45;4.60;;;21.70;90.80;;;;;;4977635;28;20456;-55
2022/07/18 06:35:01;;;;;;;8.30;4.35;;;21.50;95.70;;;;;;4978331;28;20050;-56
2022/07/18 06:37:27;;;;;;;11.15;4.40;;;21.60;91.10;;;;;;4995785;28;20054;-55
2022/07/18 06:39:54;;;;;;;12.50;5.00;;;21.60;91.90;;;;;;4978610;28;20140;-54
2022/07/18 06:42:19;;;;;;;9.73;4.50;;;21.00;97.20;;;;;;4978319;28;20133;-55
2022/07/18 06:44:46;;;;;;;11.15;4.38;;;21.50;93.20;;;;;;4995682;28;20520;-55
2022/07/18 06:47:11;;;;;;;7.32;4.40;;;21.60;94.00;;;;;;4995918;28;20367;-54
2022/07/18 06:49:37;;;;;;;9.20;4.43;;;21.70;94.10;;;;;;4995776;28;20050;-55
2022/07/18 06:52:03;;;;;;;12.60;4.32;;;21.90;94.00;;;;;;4995370;28;20490;-55
2022/07/18 06:54:28;;;;;;;7.82;4.00;;;22.00;93.40;;;;;;4978158;28;20078;-55
2022/07/18 06:56:54;;;;;;;11.98;4.57;;;22.30;97.90;;;;;;4995451;28;20104;-55
2022/07/18 06:59:22;;;;;;;10.15;4.32;;;22.30;93.50;;;;;;4995216;28;20093;-55
2022/07/18 07:01:48;;;;;;;10.40;4.03;;;22.40;93.40;;;;;;4977616;28;20066;-55
2022/07/18 07:04:14;;;;;;;9.02;4.20;;;25.40;93.80;;;;;;4995604;28;20061;-55
2022/07/18 07:06:40;;;;;;;10.90;4.15;;;22.50;92.50;;;;;;4977849;28;20054;-55
2022/07/18 07:09:05;;;;;;;7.53;3.75;;;22.60;92.20;;;;;;4995187;28;20121;-57
2022/07/18 07:11:32;;;;;;;13.85;3.75;;;23.00;92.00;;;;;;4977881;28;20038;-58
2022/07/18 07:13:58;;;;;;;9.13;3.60;;;23.60;90.80;;;;;;4995199;28;20138;-58
2022/07/18 07:16:23;;;;;;;8.35;3.90;;;24.50;86.80;;;;;;4995267;28;20117;-58
2022/07/18 07:18:49;;;;;;;13.60;4.43;;;25.20;80.00;;;;;;4995030;28;20050;-58
2022/07/18 07:21:15;;;;;;;8.60;4.18;;;26.00;75.90;;;;;;4995000;28;20050;-59
2022/07/18 07:23:41;;;;;;;7.93;4.18;;;26.60;71.60;;;;;;4977645;28;20062;-59
2022/07/18 07:26:08;;;;;;;6.80;3.70;;;27.10;69.10;;;;;;4994917;28;20387;-57
2022/07/18 07:28:33;;;;;;;8.20;3.78;;;27.40;66.50;;;;;;4994623;28;20046;-59
2022/07/18 07:30:59;;;;;;;7.15;3.60;;;27.60;65.80;;;;;;4995299;28;20039;-60
2022/07/18 07:33:25;;;;;;;9.55;3.58;;;28.00;65.40;;;;;;4977467;28;20517;-58
2022/07/18 07:35:51;;;;;;;8.43;3.50;;;28.40;63.00;;;;;;4995016;28;20125;-59
2022/07/18 07:38:19;;;;;;;13.85;3.90;;;28.50;61.60;;;;;;4999860;28;20041;-59
2022/07/18 07:40:47;;;;;;;9.10;3.33;;;28.60;61.50;;;;;;4995169;28;20058;-59
2022/07/18 07:43:15;;;;;;;7.18;3.08;;;29.00;67.20;;;;;;4994291;28;20061;-59
2022/07/18 07:45:41;;;;;;;6.45;3.33;;;29.00;60.10;;;;;;4994708;28;20086;-56
2022/07/18 07:48:07;;;;;;;11.93;3.50;;;29.10;59.60;;;;;;4994496;28;20050;-56
2022/07/18 07:50:34;;;;;;;9.60;3.30;;;29.10;60.00;;;;;;4994326;28;20536;-56
2022/07/18 07:53:00;;;;;;;8.35;3.08;;;29.20;59.20;;;;;;4994583;28;20299;-56
2022/07/18 07:55:28;;;;;;;8.50;3.03;;;29.20;58.80;;;;;;4977343;28;20058;-56
2022/07/18 07:57:53;;;;;;;8.20;2.70;;;29.40;58.30;;;;;;4976906;28;20125;-56
2022/07/18 08:00:21;;;;;;;6.95;2.90;;;29.60;58.00;;;;;;4994397;28;20153;-56
2022/07/18 08:02:59;;;;;;;11.60;3.10;;;29.80;57.70;;;;;;4994097;28;20509;-56
2022/07/18 08:05:31;;;;;;;5.10;2.70;;;29.80;56.60;;;;;;4994507;28;20105;-57
2022/07/18 08:07:57;;;;;;;6.82;3.10;;;29.70;56.70;;;;;;4977079;28;20482;-56
2022/07/18 08:10:23;;;;;;;5.95;2.60;;;29.70;56.70;;;;;;4993877;28;20058;-57
2022/07/18 08:12:49;;;;;;;8.23;3.08;;;29.90;56.80;;;;;;4994147;28;20046;-56
2022/07/18 08:15:15;;;;;;;6.70;2.83;;;30.70;61.70;;;;;;4994152;28;20525;-56
2022/07/18 08:17:41;;;;;;;8.23;2.70;;;30.50;55.60;;;;;;4994359;28;20096;-57
2022/07/18 08:20:07;;;;;;;8.10;2.42;;;30.70;54.40;;;;;;4993949;28;20363;-57
2022/07/18 08:22:33;;;;;;;8.43;2.47;;;30.90;54.40;;;;;;4976698;28;20097;-57
2022/07/18 08:24:59;;;;;;;6.40;2.30;;;30.70;52.40;;;;;;4993821;28;20042;-57
2022/07/18 08:27:24;;;;;;;9.32;2.40;;;30.70;52.10;;;;;;4994002;28;20452;-57
2022/07/18 08:29:50;;;;;;;7.13;2.55;;;30.70;52.10;;;;;;4993976;28;20042;-57
2022/07/18 08:32:16;;;;;;;5.95;2.47;;;30.70;51.70;;;;;;4993767;28;20050;-57
2022/07/18 08:34:41;;;;;;;7.15;2.50;;;30.70;51.50;;;;;;4993810;28;20054;-56
2022/07/18 08:37:07;;;;;;;6.45;2.53;;;30.60;51.30;;;;;;4993939;28;20533;-56
2022/07/18 08:39:34;;;;;;;8.32;2.38;;;30.50;51.50;;;;;;4993535;28;20057;-56
2022/07/18 08:42:01;;;;;;;8.48;2.28;;;30.40;51.70;;;;;;4976241;28;20058;-56
2022/07/18 08:44:28;;;;;;;12.57;2.25;;;30.50;51.70;;;;;;4976592;28;20508;-57
2022/07/18 08:46:59;;;;;;;5.47;2.08;;;30.50;56.50;;;;;;4993803;28;20129;-57
2022/07/18 08:49:26;;;;;;;6.88;2.10;;;30.50;51.60;;;;;;4993488;28;20050;-57
2022/07/18 08:51:52;;;;;;;7.88;2.17;;;30.70;51.50;;;;;;5001316;28;20042;-57
2022/07/18 08:54:18;;;;;;;8.07;2.00;;;30.80;50.90;;;;;;5000057;28;20052;-57
2022/07/18 08:56:43;;;;;;;8.35;2.08;;;30.70;50.70;;;;;;5013009;28;20050;-60
2022/07/18 08:59:09;;;;;;;4.95;2.00;;;30.80;51.20;;;;;;5013129;28;20049;-57
2022/07/18 09:01:35;;;;;;;5.00;2.03;;;30.90;49.60;;;;;;5012656;28;20058;-57
2022/07/18 09:04:17;;;;;;;6.28;2.28;;;30.90;49.20;;;;;;4995130;28;20046;-57
2022/07/18 09:06:52;;;;;;;6.53;2.20;;;30.80;48.70;;;;;;4994852;28;20576;-57
2022/07/18 09:09:18;;;;;;;7.43;2.08;;;30.90;48.10;;;;;;5012923;28;20054;-57
2022/07/18 09:11:56;;;;;;;9.82;2.67;;;31.00;49.00;;;;;;5012570;28;20136;-57
2022/07/18 09:14:43;;;;;;;8.13;2.40;;;31.00;47.60;;;;;;5012969;28;20094;-57
2022/07/18 09:17:12;;;;;;;6.05;2.30;;;30.90;46.80;;;;;;5012598;28;20053;-56
2022/07/18 09:19:43;;;;;;;7.05;2.25;;;30.70;47.70;;;;;;5012395;28;20470;-56
2022/07/18 09:22:12;;;;;;;6.57;2.30;;;30.70;47.80;;;;;;5012523;28;20053;-58
2022/07/18 09:24:50;;;;;;;10.70;2.28;;;30.80;53.50;;;;;;5012381;28;20090;-57
2022/07/18 09:27:26;;;;;;;4.78;2.17;;;30.60;47.30;;;;;;4994920;28;20050;-57
2022/07/18 09:30:17;;;;;;;5.65;2.42;;;30.70;46.80;;;;;;5012578;28;20474;-57
2022/07/18 09:32:51;;;;;;;5.22;2.30;;;30.70;46.60;;;;;;5012208;28;20104;-56
2022/07/18 09:35:27;;;;;;;5.55;2.42;;;30.60;47.70;;;;;;5012251;28;20052;-56
2022/07/18 09:38:00;;;;;;;7.03;2.55;;;30.30;51.30;;;;;;5012191;28;20413;-56
2022/07/18 09:40:31;;;;;;;8.50;2.53;;;29.90;53.00;;;;;;4994645;28;20485;-56
2022/07/18 09:43:00;;;;;;;8.63;2.08;;;30.60;47.80;;;;;;4978247;28;20050;-57
2022/07/18 09:45:44;;;;;;;6.35;2.00;;;30.60;47.10;;;;;;5012304;28;20485;-57
2022/07/18 09:48:12;;;;;;;8.02;2.45;;;30.70;47.50;;;;;;5011863;28;20434;-57
2022/07/18 09:50:43;;;;;;;13.43;2.42;;;30.80;46.80;;;;;;5012283;28;20061;-57
2022/07/18 09:53:25;;;;;;;7.35;2.30;;;30.80;46.50;;;;;;5011861;28;20078;-57
2022/07/18 09:55:56;;;;;;;7.00;2.30;;;30.80;45.70;;;;;;5012003;28;20120;-57
2022/07/18 09:58:29;;;;;;;6.97;2.15;;;30.90;45.90;;;;;;4994045;28;20062;-57
2022/07/18 10:00:57;;;;;;;7.00;2.25;;;30.80;45.80;;;;;;5011698;28;20104;-57
2022/07/18 10:03:24;;;;;;;9.32;2.40;;;30.70;46.40;;;;;;5012199;28;20077;-58
2022/07/18 10:05:52;;;;;;;8.48;2.30;;;30.70;46.20;;;;;;5011290;28;20072;-57
2022/07/18 10:08:20;;;;;;;12.48;2.60;;;30.80;46.40;;;;;;5011611;28;20128;-57
2022/07/18 10:10:47;;;;;;;7.60;2.25;;;30.80;46.50;;;;;;5011437;28;20082;-57
2022/07/18 10:13:15;;;;;;;6.88;2.22;;;30.90;46.60;;;;;;5011615;28;20057;-57
2022/07/18 10:15:45;;;;;;;9.68;2.55;;;30.90;45.60;;;;;;5011369;28;20042;-57
2022/07/18 10:18:14;;;;;;;9.00;2.28;;;31.00;45.70;;;;;;4996452;28;20125;-57
2022/07/18 10:20:46;;;;;;;8.25;2.60;;;30.90;45.20;;;;;;4990121;28;20081;-57
2022/07/18 10:23:24;;;;;;;5.20;2.53;;;30.90;45.00;;;;;;4991136;28;20062;-57
2022/07/18 10:26:15;;;;;;;13.05;2.90;;;30.90;45.00;;;;;;4973243;28;20078;-57
2022/07/18 10:29:14;;;;;;;7.88;2.70;;;31.10;49.10;;;;;;4990729;28;20057;-57
2022/07/18 10:31:58;;;;;;;9.50;2.63;;;30.90;45.50;;;;;;4985246;28;20431;-57
2022/07/18 10:34:31;;;;;;;7.35;2.58;;;31.00;46.00;;;;;;4997995;28;20282;-57
2022/07/18 10:37:01;;;;;;;7.45;2.80;;;30.90;45.30;;;;;;4991253;28;20410;-58
2022/07/18 10:39:36;;;;;;;8.75;2.80;;;30.70;45.10;;;;;;4990387;28;20057;-58
2022/07/18 10:42:02;;;;;;;7.82;2.78;;;30.70;45.10;;;;;;5006474;28;20533;-57
2022/07/18 10:44:28;;;;;;;7.70;3.13;;;30.60;45.00;;;;;;4969899;28;20090;-58
2022/07/18 10:47:03;;;;;;;4.15;2.58;;;30.60;45.00;;;;;;4991015;28;20046;-57
2022/07/18 10:49:47;;;;;;;;;;;30.70;44.80;;;;;;4973479;28;20050;-57
2022/07/18 10:52:25;;;;;;;12.07;2.72;;;30.70;45.50;;;;;;4990789;28;19968;-58
2022/07/18 10:55:04;;;;;;;10.48;2.67;;;30.90;45.10;;;;;;4997662;28;20104;-57
2022/07/18 10:57:43;;;;;;;10.43;2.60;;;30.90;44.30;;;;;;4981663;28;20554;-57
2022/07/18 11:00:22;;;;;;;5.32;2.50;;;31.00;44.20;;;;;;4974010;28;20065;-57
2022/07/18 11:03:03;;;;;;;7.15;2.78;;;31.00;43.30;;;;;;4991554;28;20056;-57
2022/07/18 11:05:28;;;;;;;9.10;2.75;;;31.00;44.00;;;;;;4991423;28;20061;-57
2022/07/18 11:08:03;;;;;;;6.82;2.50;;;31.00;43.30;;;;;;4992006;28;20050;-60
2022/07/18 11:10:49;;;;;;;5.63;2.80;;;31.00;43.50;;;;;;4973862;28;20050;-60
2022/07/18 11:13:30;;;;;;;6.88;2.60;;;31.10;42.70;;;;;;4991557;28;20349;-61
2022/07/18 11:16:08;;;;;;;7.00;3.00;;;31.10;42.50;;;;;;4974256;28;20073;-60
2022/07/18 11:18:40;;;;;;;5.85;2.83;;;31.10;42.80;;;;;;4976933;28;20120;-61
2022/07/18 11:21:32;;;;;;;6.55;3.08;;;31.10;42.80;;;;;;4995087;28;20046;-60
2022/07/18 11:24:09;;;;;;;7.82;3.00;;;31.10;41.50;;;;;;4995216;28;20053;-60
2022/07/18 11:26:38;;;;;;;8.57;3.10;;;31.10;42.50;;;;;;4995283;28;20038;-60
2022/07/18 11:29:10;;;;;;;7.55;2.80;;;31.10;41.90;;;;;;4995015;28;20089;-61
2022/07/18 11:31:51;;;;;;;5.95;2.90;;;31.10;42.20;;;;;;4994949;28;20042;-61
2022/07/18 11:34:18;;;;;;;5.93;3.00;;;31.10;41.70;;;;;;4994889;28;20454;-62
2022/07/18 11:36:47;;;;;;;6.68;3.17;;;31.10;41.70;;;;;;4977720;28;20410;-61
2022/07/18 11:39:14;;;;;;;6.18;3.00;;;31.10;41.80;;;;;;4994849;28;20133;-60
2022/07/18 11:41:40;;;;;;;10.80;3.42;;;31.10;41.90;;;;;;4994844;28;20085;-60
2022/07/18 11:44:26;;;;;;;4.85;3.17;;;31.20;42.00;;;;;;4994774;28;20418;-61
2022/07/18 11:47:22;;;;;;;6.07;3.20;;;31.40;42.80;;;;;;4977182;28;20120;-61
2022/07/18 11:49:55;;;;;;;5.80;3.17;;;31.50;42.20;;;;;;4982024;28;20046;-61
2022/07/18 11:52:22;;;;;;;5.43;3.00;;;31.50;40.70;;;;;;4994570;28;20053;-60
2022/07/18 11:54:47;;;;;;;7.30;3.20;;;31.60;40.80;;;;;;4994560;28;20125;-61
2022/07/18 11:57:25;;;;;;;8.38;3.20;;;31.60;41.90;;;;;;4994470;28;20150;-61
2022/07/18 11:59:50;;;;;;;8.45;3.20;;;31.70;41.20;;;;;;4994645;28;20471;-61
2022/07/18 12:02:16;;;;;;;6.72;3.30;;;31.80;41.50;;;;;;4994391;28;20064;-60
2022/07/18 12:04:42;;;;;;;11.25;3.65;;;31.80;41.00;;;;;;4994222;28;20093;-60
2022/07/18 12:07:21;;;;;;;14.35;3.50;;;31.70;41.20;;;;;;4994233;28;20051;-61
2022/07/18 12:09:48;;;;;;;6.38;3.35;;;31.70;40.40;;;;;;4976565;28;20129;-61
2022/07/18 12:12:16;;;;;;;10.68;3.65;;;31.50;40.70;;;;;;4994657;28;20409;-61
2022/07/18 12:14:42;;;;;;;7.00;3.13;;;31.40;40.70;;;;;;4994448;28;20058;-61
2022/07/18 12:17:08;;;;;;;11.07;3.28;;;31.40;41.20;;;;;;4994237;28;20394;-61
2022/07/18 12:19:37;;;;;;;9.55;3.30;;;31.40;42.30;;;;;;4993972;28;20058;-61
2022/07/18 12:22:03;;;;;;;7.15;3.33;;;31.30;41.90;;;;;;4994628;28;20588;-61
2022/07/18 12:24:39;;;;;;;6.10;3.50;;;31.30;41.20;;;;;;4976821;28;20050;-60
2022/07/18 12:27:16;;;;;;;7.15;3.38;;;31.20;42.00;;;;;;4994152;28;20077;-60
2022/07/18 12:30:04;;;;;;;5.47;3.33;;;31.20;42.40;;;;;;4993044;28;20051;-60
2022/07/18 12:32:40;;;;;;;5.80;3.00;;;31.30;43.80;;;;;;4993794;28;20046;-60
2022/07/18 12:35:08;;;;;;;6.30;3.22;;;31.30;42.80;;;;;;4993955;28;20046;-61
2022/07/18 12:37:34;;;;;;;11.95;3.47;;;31.30;43.10;;;;;;4993975;28;20046;-60
2022/07/18 12:40:09;;;;;;;4.68;3.13;;;31.50;43.60;;;;;;4976329;28;20043;-60
2022/07/18 12:42:38;;;;;;;8.63;3.85;;;31.60;43.90;;;;;;4993800;28;20057;-60
2022/07/18 12:45:05;;;;;;;7.35;3.25;;;31.80;42.80;;;;;;4976123;28;20133;-60
2022/07/18 12:47:31;;;;;;;6.82;3.35;;;32.00;42.20;;;;;;4993692;28;20050;-60
2022/07/18 12:49:58;;;;;;;6.82;3.10;;;32.10;41.80;;;;;;4993565;28;20088;-61
2022/07/18 12:52:24;;;;;;;4.78;2.90;;;32.20;41.80;;;;;;4993652;28;20097;-60